Time;durP1;ratioP1;P1;durP2;ratioP2;P2;SDS_P1;SDS_P2;PMS_P1;PMS_P2;Temp;Humidity;BMP_temperature;BMP_pressure;BME280_temperature;BME280_humidity;BME280_pressure;Samples;Min_cycle;Max_cycle;Signal;HPM_P1;HPM_P2
2023/04/02 00:01:38;;;;;;;1.25;0.50;;;13.10;59.10;;;;;;4965046;28;20509;-45
2023/04/02 00:04:21;;;;;;;3.58;1.15;;;13.10;59.20;;;;;;4965332;28;20055;-46
2023/04/02 00:06:53;;;;;;;1.55;0.75;;;13.10;59.20;;;;;;4966911;28;20046;-46
2023/04/02 00:09:26;;;;;;;2.00;1.00;;;13.10;59.20;;;;;;4966249;28;20503;-45
2023/04/02 00:11:54;;;;;;;0.97;0.80;;;13.10;59.20;;;;;;4966790;28;20051;-45
2023/04/02 00:14:25;;;;;;;0.70;0.70;;;13.10;59.20;;;;;;4963409;28;20415;-47
2023/04/02 00:16:54;;;;;;;0.77;0.77;;;13.10;59.20;;;;;;4966851;28;20054;-48
2023/04/02 00:19:29;;;;;;;0.65;0.65;;;13.10;59.20;;;;;;4964007;28;20046;-46
2023/04/02 00:21:59;;;;;;;2.08;0.93;;;13.10;59.20;;;;;;4966557;28;20058;-46
2023/04/02 00:24:27;;;;;;;1.23;0.80;;;13.10;59.20;;;;;;4964303;28;20059;-47
2023/04/02 00:26:55;;;;;;;0.90;0.80;;;13.10;59.20;;;;;;4965576;28;20637;-46
2023/04/02 00:29:22;;;;;;;0.93;0.80;;;13.10;59.30;;;;;;4964196;28;20476;-46
2023/04/02 00:31:51;;;;;;;1.35;0.90;;;13.10;59.30;;;;;;4965372;28;20051;-46
2023/04/02 00:34:22;;;;;;;1.38;1.00;;;13.10;59.40;;;;;;4964736;28;20169;-45
2023/04/02 00:36:50;;;;;;;2.22;0.73;;;13.10;59.40;;;;;;4966242;28;20050;-46
2023/04/02 00:39:23;;;;;;;0.70;0.70;;;13.10;59.40;;;;;;4965938;28;20054;-47
2023/04/02 00:41:57;;;;;;;1.67;1.10;;;13.10;59.40;;;;;;4965711;28;20065;-47
2023/04/02 00:44:29;;;;;;;0.82;0.80;;;13.10;59.40;;;;;;4964243;28;20051;-46
2023/04/02 00:46:57;;;;;;;1.55;1.00;;;13.10;59.40;;;;;;4965519;28;20419;-48
2023/04/02 00:49:32;;;;;;;1.58;1.17;;;13.10;59.30;;;;;;4964854;28;20081;-45
2023/04/02 00:52:04;;;;;;;1.40;1.30;;;13.10;59.40;;;;;;4966037;28;20066;-46
2023/04/02 00:54:38;;;;;;;1.92;1.30;;;13.10;59.40;;;;;;4964787;28;20054;-48
2023/04/02 00:57:15;;;;;;;2.45;1.20;;;13.10;59.40;;;;;;4964134;28;20513;-47
2023/04/02 00:59:51;;;;;;;2.47;1.40;;;13.10;59.40;;;;;;4964937;28;20053;-45
2023/04/02 01:02:26;;;;;;;1.30;1.20;;;13.10;59.40;;;;;;4965118;28;20055;-44
2023/04/02 01:04:55;;;;;;;2.58;1.35;;;13.10;59.40;;;;;;5013707;23;20046;-45
2023/04/02 01:07:45;;;;;;;5.63;1.75;;;13.10;59.40;;;;;;5001492;28;20520;-42
2023/04/02 01:10:44;;;;;;;1.20;1.10;;;13.10;59.40;;;;;;5001450;28;20065;-44
2023/04/02 01:13:22;;;;;;;2.67;1.27;;;13.10;59.40;;;;;;5001236;28;20202;-41
2023/04/02 01:15:56;;;;;;;2.00;1.52;;;13.10;59.30;;;;;;5003381;28;20497;-42
2023/04/02 01:18:45;;;;;;;1.17;1.08;;;13.10;59.30;;;;;;4999175;28;20046;-43
2023/04/02 01:21:42;;;;;;;2.40;1.55;;;13.10;59.30;;;;;;4999888;28;20046;-44
2023/04/02 01:24:11;;;;;;;2.42;1.63;;;13.20;59.40;;;;;;5000588;28;20069;-46
2023/04/02 01:26:57;;;;;;;1.50;1.40;;;13.10;59.30;;;;;;5002339;28;20057;-43
2023/04/02 01:29:30;;;;;;;1.50;1.40;;;13.10;59.40;;;;;;4997504;28;20058;-44
2023/04/02 01:32:01;;;;;;;1.60;1.40;;;13.20;59.40;;;;;;5002608;28;20049;-41
2023/04/02 01:34:29;;;;;;;1.85;1.45;;;13.10;59.40;;;;;;5000597;28;20050;-43
2023/04/02 01:37:21;;;;;;;1.60;1.50;;;13.10;59.40;;;;;;4999397;28;20050;-42
2023/04/02 01:40:06;;;;;;;2.17;1.55;;;13.10;59.40;;;;;;4997570;28;20061;-40
2023/04/02 01:42:39;;;;;;;1.63;1.52;;;13.10;59.40;;;;;;5001922;28;20053;-44
2023/04/02 01:45:10;;;;;;;1.85;1.50;;;13.10;59.40;;;;;;5001207;28;20057;-44
2023/04/02 01:47:38;;;;;;;2.42;1.60;;;13.10;59.40;;;;;;5002410;28;20050;-43
2023/04/02 01:50:21;;;;;;;1.75;1.60;;;13.10;59.40;;;;;;4999457;28;20054;-41
2023/04/02 01:52:51;;;;;;;2.00;1.70;;;13.10;59.40;;;;;;5001553;28;20401;-42
2023/04/02 01:55:21;;;;;;;4.03;1.55;;;13.20;59.40;;;;;;5000249;28;20050;-43
2023/04/02 01:57:51;;;;;;;2.13;1.90;;;13.20;59.40;;;;;;5001510;28;20042;-41
2023/04/02 02:00:21;;;;;;;3.13;1.83;;;13.10;59.40;;;;;;5001386;28;20413;-46
2023/04/02 02:02:50;;;;;;;2.83;1.98;;;13.10;59.40;;;;;;5000723;28;20421;-41
2023/04/02 02:05:21;;;;;;;2.13;1.90;;;13.10;59.30;;;;;;4981315;28;20057;-44
2023/04/02 02:07:50;;;;;;;4.00;2.72;;;13.10;59.30;;;;;;4982737;28;20438;-42
2023/04/02 02:10:24;;;;;;;2.55;2.35;;;13.10;59.30;;;;;;4978737;28;20062;-44
2023/04/02 02:12:51;;;;;;;2.72;2.47;;;13.10;59.30;;;;;;4981445;28;20058;-44
2023/04/02 02:15:22;;;;;;;2.38;2.15;;;13.10;59.40;;;;;;4981658;28;20069;-42
2023/04/02 02:17:50;;;;;;;3.30;2.15;;;13.10;59.40;;;;;;4980572;28;20050;-42
2023/04/02 02:20:18;;;;;;;3.63;2.70;;;13.10;59.40;;;;;;4980900;28;20058;-41
2023/04/02 02:22:48;;;;;;;2.40;2.20;;;13.10;59.40;;;;;;4978857;28;20050;-43
2023/04/02 02:25:18;;;;;;;7.93;3.63;;;13.10;59.40;;;;;;4982035;28;20050;-47
2023/04/02 02:27:55;;;;;;;3.53;2.65;;;13.10;59.40;;;;;;4980424;28;20394;-44
2023/04/02 02:30:28;;;;;;;2.85;2.28;;;13.10;59.50;;;;;;4981510;28;20046;-40
2023/04/02 02:33:05;;;;;;;3.25;2.58;;;13.10;59.40;;;;;;4982149;28;20050;-43
2023/04/02 02:35:39;;;;;;;2.83;2.20;;;13.10;59.50;;;;;;4979508;28;20085;-41
2023/04/02 02:38:35;;;;;;;2.33;2.13;;;13.10;59.40;;;;;;4981079;28;21483;-43
2023/04/02 02:41:07;;;;;;;3.08;2.72;;;13.10;59.50;;;;;;4979635;28;20634;-42
2023/04/02 02:43:38;;;;;;;2.50;2.30;;;13.10;59.50;;;;;;4981855;28;20042;-46
2023/04/02 02:46:10;;;;;;;5.35;2.72;;;13.10;59.40;;;;;;4981280;28;20050;-44
2023/04/02 02:48:41;;;;;;;2.72;2.42;;;13.10;59.50;;;;;;4980117;28;20065;-46
2023/04/02 02:51:17;;;;;;;7.03;2.60;;;13.10;59.50;;;;;;4980303;28;20073;-43
2023/04/02 02:53:49;;;;;;;3.38;2.58;;;13.10;59.50;;;;;;4981460;28;20407;-40
2023/04/02 02:56:17;;;;;;;2.53;2.33;;;13.10;59.50;;;;;;4980949;28;20058;-43
2023/04/02 02:58:44;;;;;;;3.42;2.58;;;13.10;59.60;;;;;;4981985;28;20054;-41
2023/04/02 03:01:13;;;;;;;3.40;2.47;;;13.10;59.60;;;;;;4981382;28;20055;-43
2023/04/02 03:03:40;;;;;;;3.03;2.72;;;13.10;59.60;;;;;;4979774;28;20050;-44
2023/04/02 03:06:10;;;;;;;2.40;2.20;;;13.10;59.60;;;;;;4980402;28;20057;-44
2023/04/02 03:08:41;;;;;;;2.40;2.15;;;13.10;59.60;;;;;;4981413;28;21400;-43
2023/04/02 03:11:13;;;;;;;3.08;2.78;;;13.10;59.50;;;;;;4980295;28;20054;-43
2023/04/02 03:13:46;;;;;;;2.92;2.50;;;13.10;59.50;;;;;;4980879;28;20050;-41
2023/04/02 03:16:18;;;;;;;3.20;2.80;;;13.10;59.50;;;;;;4980777;28;20581;-42
2023/04/02 03:18:51;;;;;;;3.40;3.08;;;13.10;59.60;;;;;;4982847;28;20050;-44
2023/04/02 03:21:26;;;;;;;5.90;2.87;;;13.10;59.60;;;;;;4980378;28;20058;-44
2023/04/02 03:23:57;;;;;;;5.03;3.50;;;13.10;59.50;;;;;;4985224;28;20058;-41
2023/04/02 03:26:31;;;;;;;3.10;2.80;;;13.10;59.50;;;;;;4985058;28;20418;-39
2023/04/02 03:29:03;;;;;;;4.15;3.28;;;13.10;59.50;;;;;;4985242;28;20053;-42
2023/04/02 03:31:37;;;;;;;2.92;2.63;;;13.10;59.60;;;;;;4983675;28;20486;-40
2023/04/02 03:34:09;;;;;;;3.17;2.88;;;13.10;59.70;;;;;;4982667;28;20050;-42
2023/04/02 03:36:45;;;;;;;3.45;3.15;;;13.10;59.70;;;;;;4984088;28;20061;-40
2023/04/02 03:39:18;;;;;;;4.28;2.88;;;13.10;59.80;;;;;;4984980;28;20077;-42
2023/04/02 03:41:50;;;;;;;3.47;3.17;;;13.00;59.70;;;;;;4984563;28;20054;-40
2023/04/02 03:44:23;;;;;;;3.25;2.85;;;13.10;59.70;;;;;;4984208;28;20536;-41
2023/04/02 03:46:56;;;;;;;4.70;3.55;;;13.10;59.70;;;;;;4983794;28;20054;-42
2023/04/02 03:49:33;;;;;;;5.28;3.92;;;13.00;59.70;;;;;;4982005;28;20109;-42
2023/04/02 03:52:05;;;;;;;4.05;3.50;;;13.00;59.70;;;;;;4983262;28;20054;-42
2023/04/02 03:54:33;;;;;;;4.97;3.72;;;13.00;59.70;;;;;;4981738;28;20088;-45
2023/04/02 03:57:00;;;;;;;3.33;2.97;;;13.00;59.80;;;;;;4982561;28;20050;-42
2023/04/02 03:59:39;;;;;;;5.97;3.60;;;13.00;59.80;;;;;;4981832;28;20054;-39
2023/04/02 04:02:19;;;;;;;3.95;3.47;;;13.00;59.90;;;;;;4983031;28;20069;-40
2023/04/02 04:04:48;;;;;;;4.70;4.15;;;13.00;60.00;;;;;;4980647;28;20069;-42
2023/04/02 04:07:21;;;;;;;5.18;3.65;;;13.00;60.00;;;;;;4982428;28;20058;-43
2023/04/02 04:09:51;;;;;;;4.95;4.28;;;13.00;60.00;;;;;;4984811;28;20050;-42
2023/04/02 04:12:28;;;;;;;9.00;4.72;;;13.00;60.10;;;;;;4985085;28;20441;-42
2023/04/02 04:15:00;;;;;;;5.50;4.63;;;12.90;60.20;;;;;;4986364;28;20517;-43
2023/04/02 04:17:37;;;;;;;9.18;5.45;;;12.90;60.20;;;;;;4980634;28;20422;-44
2023/04/02 04:20:16;;;;;;;7.70;5.32;;;12.90;60.50;;;;;;4979596;28;20057;-43
2023/04/02 04:22:43;;;;;;;295.83;11.45;;;12.80;60.70;;;;;;4984947;28;20062;-40
2023/04/02 04:25:21;;;;;;;107.00;7.55;;;12.70;61.00;;;;;;4985424;28;20375;-41
2023/04/02 04:28:04;;;;;;;65.63;6.38;;;12.70;61.50;;;;;;4985411;28;20058;-42
2023/04/02 04:30:41;;;;;;;283.67;12.05;;;12.60;61.80;;;;;;4984269;28;20042;-43
2023/04/02 04:33:21;;;;;;;7.50;4.85;;;12.60;62.20;;;;;;4985663;28;20061;-42
2023/04/02 04:35:52;;;;;;;4.30;3.70;;;12.50;62.60;;;;;;4985630;28;20054;-44
2023/04/02 04:38:26;;;;;;;6.15;3.45;;;12.40;62.70;;;;;;4985682;28;20081;-44
2023/04/02 04:40:56;;;;;;;3.55;3.08;;;12.40;62.90;;;;;;4985797;28;20062;-42
2023/04/02 04:43:33;;;;;;;2.83;2.03;;;12.30;63.00;;;;;;4985095;28;20502;-44
2023/04/02 04:46:05;;;;;;;2.60;1.38;;;12.30;63.00;;;;;;4985205;28;20058;-43
2023/04/02 04:48:37;;;;;;;1.13;1.00;;;12.30;62.80;;;;;;4984669;28;20073;-44
2023/04/02 04:51:08;;;;;;;2.50;1.10;;;12.30;62.70;;;;;;4985306;28;20050;-42
2023/04/02 04:53:45;;;;;;;1.00;0.80;;;12.20;62.60;;;;;;4984831;28;20502;-44
2023/04/02 04:56:17;;;;;;;2.92;1.00;;;12.20;62.80;;;;;;4985011;28;20095;-43
2023/04/02 04:58:49;;;;;;;1.35;0.90;;;12.20;62.80;;;;;;4985293;28;20497;-47
2023/04/02 05:01:21;;;;;;;2.70;0.68;;;12.20;63.00;;;;;;4984932;28;20050;-45
2023/04/02 05:03:54;;;;;;;2.35;0.80;;;12.10;62.90;;;;;;4982360;28;20058;-43
2023/04/02 05:06:33;;;;;;;0.90;0.80;;;12.10;63.00;;;;;;4984400;28;20054;-43
2023/04/02 05:09:07;;;;;;;1.98;0.50;;;12.10;63.20;;;;;;4983028;28;20054;-45
2023/04/02 05:11:40;;;;;;;1.85;0.38;;;12.10;63.10;;;;;;4982679;28;20046;-42
2023/04/02 05:14:15;;;;;;;0.50;0.40;;;12.20;63.00;;;;;;4983085;28;20065;-44
2023/04/02 05:16:48;;;;;;;0.32;0.10;;;12.10;62.70;;;;;;4983153;28;20466;-42
2023/04/02 05:19:23;;;;;;;0.95;0.38;;;12.20;63.30;;;;;;4979825;28;20054;-43
2023/04/02 05:21:57;;;;;;;0.98;0.20;;;12.20;62.50;;;;;;4981420;28;20058;-44
2023/04/02 05:24:47;;;;;;;1.45;0.32;;;12.20;62.30;;;;;;4982000;28;20054;-43
2023/04/02 05:27:26;;;;;;;4.32;1.98;;;12.20;62.00;;;;;;4980993;28;20509;-43
2023/04/02 05:30:00;;;;;;;2.85;1.10;;;12.20;61.80;;;;;;4981593;28;20053;-45
2023/04/02 05:32:31;;;;;;;2.95;0.60;;;12.20;61.60;;;;;;4981191;28;20053;-43
2023/04/02 05:35:04;;;;;;;1.08;0.28;;;12.20;61.40;;;;;;4979085;28;20062;-45
2023/04/02 05:37:31;;;;;;;3.03;0.40;;;12.20;61.20;;;;;;4978129;28;20084;-41
2023/04/02 05:40:05;;;;;;;0.40;0.13;;;12.20;61.20;;;;;;4983236;28;20050;-44
2023/04/02 05:42:36;;;;;;;0.25;0.15;;;12.20;61.10;;;;;;4978364;28;20046;-43
2023/04/02 05:45:14;;;;;;;1.05;0.20;;;12.20;61.10;;;;;;4981801;28;20058;-42
2023/04/02 05:47:44;;;;;;;0.80;0.20;;;12.10;61.00;;;;;;4981898;28;20513;-43
2023/04/02 05:50:20;;;;;;;1.85;0.10;;;12.10;61.00;;;;;;4976800;28;20055;-44
2023/04/02 05:52:51;;;;;;;0.10;0.10;;;12.10;60.90;;;;;;4981873;28;20589;-42
2023/04/02 05:55:34;;;;;;;0.50;0.20;;;12.10;60.80;;;;;;4981267;28;20059;-43
2023/04/02 05:58:07;;;;;;;0.73;0.20;;;12.10;60.70;;;;;;4981234;28;20061;-43
2023/04/02 06:01:06;;;;;;;0.25;0.20;;;12.20;60.60;;;;;;4982716;28;20057;-44
2023/04/02 06:03:43;;;;;;;0.10;0.10;;;12.10;60.40;;;;;;4960389;28;20058;-43
2023/04/02 06:06:19;;;;;;;0.40;0.10;;;12.10;60.30;;;;;;4982353;28;20062;-45
2023/04/02 06:08:54;;;;;;;0.20;0.10;;;12.10;60.20;;;;;;4980503;28;21233;-44
2023/04/02 06:11:25;;;;;;;1.05;0.10;;;12.10;60.10;;;;;;4982843;28;20380;-47
2023/04/02 06:13:53;;;;;;;2.38;0.22;;;12.10;60.00;;;;;;4979077;28;20061;-43
2023/04/02 06:16:23;;;;;;;0.65;0.10;;;12.10;60.00;;;;;;4983424;28;20058;-42
2023/04/02 06:18:50;;;;;;;1.33;0.20;;;12.10;59.90;;;;;;4980790;28;20050;-41
2023/04/02 06:21:21;;;;;;;0.40;0.30;;;12.10;59.90;;;;;;4977757;28;20054;-46
2023/04/02 06:23:55;;;;;;;0.50;0.30;;;12.10;59.90;;;;;;4980825;28;20053;-41
2023/04/02 06:26:27;;;;;;;1.07;0.60;;;12.10;60.00;;;;;;4978319;28;20046;-42
2023/04/02 06:29:00;;;;;;;2.60;0.50;;;12.10;60.00;;;;;;4982421;28;20058;-44
2023/04/02 06:31:35;;;;;;;2.53;0.60;;;12.10;60.00;;;;;;4981102;28;20054;-42
2023/04/02 06:34:03;;;;;;;0.65;0.65;;;12.10;60.50;;;;;;4978219;28;20520;-45
2023/04/02 06:36:33;;;;;;;0.88;0.68;;;12.10;59.50;;;;;;4981704;28;20058;-39
2023/04/02 06:39:07;;;;;;;0.80;0.80;;;12.00;59.50;;;;;;4978439;28;20065;-42
2023/04/02 06:41:34;;;;;;;0.55;0.55;;;12.00;59.50;;;;;;4980693;28;20046;-46
2023/04/02 06:44:06;;;;;;;0.55;0.50;;;12.00;59.50;;;;;;4975929;28;20324;-44
2023/04/02 06:46:38;;;;;;;0.63;0.60;;;11.90;59.60;;;;;;4979532;28;20054;-45
2023/04/02 06:49:19;;;;;;;1.30;0.75;;;11.90;59.60;;;;;;4974671;28;20047;-41
2023/04/02 06:51:50;;;;;;;0.55;0.55;;;11.90;59.50;;;;;;4977467;28;20061;-42
2023/04/02 06:54:18;;;;;;;3.25;0.65;;;11.80;59.40;;;;;;4980880;28;20552;-44
2023/04/02 06:56:48;;;;;;;0.45;0.45;;;11.80;59.40;;;;;;4976820;28;20924;-42
2023/04/02 06:59:15;;;;;;;1.10;0.70;;;11.80;59.60;;;;;;4979063;28;20062;-41
2023/04/02 07:01:48;;;;;;;0.70;0.50;;;11.70;59.60;;;;;;4979972;28;20058;-43
2023/04/02 07:04:17;;;;;;;0.52;0.45;;;11.70;59.60;;;;;;4977649;28;20050;-41
2023/04/02 07:06:45;;;;;;;0.43;0.40;;;11.70;59.70;;;;;;4977928;28;20054;-46
2023/04/02 07:09:14;;;;;;;0.40;0.40;;;11.70;59.60;;;;;;4979377;28;20402;-43
2023/04/02 07:11:41;;;;;;;1.65;0.60;;;11.70;59.70;;;;;;4976005;28;20069;-42
2023/04/02 07:14:11;;;;;;;0.80;0.55;;;11.70;59.70;;;;;;4976606;28;20403;-47
2023/04/02 07:16:38;;;;;;;0.55;0.50;;;11.70;59.70;;;;;;4979479;28;20061;-43
2023/04/02 07:19:05;;;;;;;2.80;0.70;;;11.70;59.70;;;;;;4979820;28;20085;-40
2023/04/02 07:21:33;;;;;;;0.60;0.60;;;11.70;59.60;;;;;;4984076;28;20054;-42
2023/04/02 07:24:00;;;;;;;0.50;0.50;;;11.70;59.70;;;;;;4982300;28;20069;-42
2023/04/02 07:26:28;;;;;;;0.90;0.50;;;11.70;59.80;;;;;;4977964;28;20490;-42
2023/04/02 07:28:56;;;;;;;2.72;0.50;;;11.70;59.60;;;;;;4977970;28;20054;-46
2023/04/02 07:31:25;;;;;;;0.70;0.40;;;11.60;59.50;;;;;;4982220;28;20406;-40
2023/04/02 07:33:56;;;;;;;0.75;0.50;;;11.70;59.70;;;;;;4982051;28;20065;-41
2023/04/02 07:36:24;;;;;;;0.60;0.40;;;11.60;59.70;;;;;;4982243;28;20061;-41
2023/04/02 07:38:51;;;;;;;1.48;0.30;;;11.60;59.70;;;;;;4978950;28;20065;-47
2023/04/02 07:41:19;;;;;;;0.63;0.40;;;11.60;59.70;;;;;;4975694;28;20430;-44
2023/04/02 07:43:48;;;;;;;0.65;0.50;;;11.60;59.60;;;;;;4976692;28;20050;-46
2023/04/02 07:46:17;;;;;;;2.13;0.40;;;11.60;59.40;;;;;;4976518;28;20050;-43
2023/04/02 07:48:46;;;;;;;0.68;0.47;;;11.60;59.50;;;;;;4977975;28;20050;-44
2023/04/02 07:51:18;;;;;;;1.48;0.45;;;11.60;59.60;;;;;;4977842;28;20054;-41
2023/04/02 07:53:48;;;;;;;0.20;0.20;;;11.60;59.70;;;;;;4979547;28;20482;-41
2023/04/02 07:56:17;;;;;;;0.22;0.22;;;11.60;59.70;;;;;;4981057;28;20054;-39
2023/04/02 07:58:45;;;;;;;0.50;0.30;;;11.70;59.80;;;;;;4975210;28;20065;-46
2023/04/02 08:01:18;;;;;;;0.63;0.32;;;11.70;59.80;;;;;;4979477;28;20058;-41
2023/04/02 08:03:45;;;;;;;0.40;0.30;;;11.70;59.70;;;;;;4979207;28;20061;-43
2023/04/02 08:06:13;;;;;;;0.30;0.10;;;11.80;59.70;;;;;;4984285;28;20047;-45
2023/04/02 08:08:40;;;;;;;0.10;0.10;;;11.80;59.10;;;;;;4974326;28;20532;-47
2023/04/02 08:11:08;;;;;;;0.10;0.10;;;11.80;58.50;;;;;;4976696;28;20046;-43
2023/04/02 08:13:36;;;;;;;0.32;0.25;;;11.90;58.20;;;;;;4975926;28;20088;-45
2023/04/02 08:16:04;;;;;;;0.10;0.10;;;11.80;58.10;;;;;;4983735;28;20509;-44
2023/04/02 08:18:33;;;;;;;0.20;0.10;;;11.90;58.00;;;;;;4979504;28;20050;-50
2023/04/02 08:21:00;;;;;;;0.40;0.10;;;11.90;57.80;;;;;;4978791;28;20061;-46
2023/04/02 08:23:28;;;;;;;0.45;0.20;;;11.90;57.70;;;;;;4979793;28;20050;-44
2023/04/02 08:25:56;;;;;;;0.40;0.20;;;11.90;57.70;;;;;;4982448;28;20065;-49
2023/04/02 08:28:23;;;;;;;1.92;0.20;;;11.90;57.50;;;;;;4979395;28;20046;-44
2023/04/02 08:30:51;;;;;;;0.10;0.10;;;11.90;57.30;;;;;;4975755;28;20062;-48
2023/04/02 08:33:18;;;;;;;0.00;0.00;;;11.80;57.10;;;;;;4980602;28;20055;-46
2023/04/02 08:35:48;;;;;;;0.80;0.10;;;11.90;56.90;;;;;;4980168;28;20160;-46
2023/04/02 08:38:17;;;;;;;0.25;0.15;;;11.90;57.30;;;;;;4982905;28;20050;-46
2023/04/02 08:40:47;;;;;;;0.30;0.25;;;11.80;56.80;;;;;;4978515;28;20057;-46
2023/04/02 08:43:36;;;;;;;0.20;0.20;;;11.80;56.90;;;;;;4979950;28;20054;-46
2023/04/02 08:46:11;;;;;;;0.73;0.20;;;11.80;56.70;;;;;;4979542;28;20054;-41
2023/04/02 08:48:43;;;;;;;0.28;0.17;;;11.80;56.90;;;;;;4979628;28;20406;-45
2023/04/02 08:51:23;;;;;;;0.28;0.20;;;11.80;57.10;;;;;;4976764;28;20062;-44
2023/04/02 08:53:53;;;;;;;0.20;0.20;;;11.80;57.10;;;;;;4979355;28;20394;-43
2023/04/02 08:56:27;;;;;;;6.22;0.20;;;11.80;57.20;;;;;;4979253;28;20058;-42
2023/04/02 08:58:56;;;;;;;0.20;0.20;;;11.80;57.20;;;;;;4980040;28;20046;-44
2023/04/02 09:01:34;;;;;;;0.95;0.35;;;11.80;57.20;;;;;;4981472;28;20509;-43
2023/04/02 09:04:06;;;;;;;0.55;0.40;;;11.80;57.10;;;;;;4978730;28;20069;-42
2023/04/02 09:06:36;;;;;;;0.30;0.30;;;11.80;57.00;;;;;;4971539;28;20054;-42
2023/04/02 09:09:03;;;;;;;1.00;0.40;;;11.80;57.10;;;;;;4979614;28;20970;-43
2023/04/02 09:11:38;;;;;;;0.20;0.20;;;11.80;57.10;;;;;;4979569;28;20062;-46
2023/04/02 09:14:15;;;;;;;0.22;0.17;;;11.90;57.00;;;;;;4979949;28;20050;-46
2023/04/02 09:16:46;;;;;;;0.32;0.30;;;11.80;56.80;;;;;;4980449;28;20058;-44
2023/04/02 09:19:19;;;;;;;0.20;0.20;;;11.80;56.80;;;;;;4980594;28;20061;-45
2023/04/02 09:21:58;;;;;;;0.25;0.10;;;11.80;56.60;;;;;;4980157;28;20061;-45
2023/04/02 09:24:25;;;;;;;0.20;0.20;;;11.80;56.50;;;;;;4979832;28;20050;-45
2023/04/02 09:26:53;;;;;;;0.43;0.10;;;11.90;56.40;;;;;;4983609;28;20143;-44
2023/04/02 09:29:40;;;;;;;0.93;0.28;;;11.80;56.30;;;;;;4981122;28;20050;-44
2023/04/02 09:32:30;;;;;;;0.30;0.20;;;11.80;56.20;;;;;;4978870;28;20499;-47
2023/04/02 09:35:11;;;;;;;0.30;0.30;;;11.80;56.20;;;;;;4981248;28;20150;-44
2023/04/02 09:37:41;;;;;;;0.30;0.30;;;11.80;56.10;;;;;;4980204;28;20058;-48
2023/04/02 09:40:23;;;;;;;2.50;0.30;;;11.80;56.10;;;;;;4980393;28;20054;-46
2023/04/02 09:43:02;;;;;;;0.40;0.40;;;11.80;56.30;;;;;;4983094;28;20062;-43
2023/04/02 09:45:30;;;;;;;0.43;0.30;;;11.80;56.40;;;;;;4980561;28;20050;-41
2023/04/02 09:47:58;;;;;;;0.52;0.40;;;11.80;56.40;;;;;;4978451;28;20058;-41
2023/04/02 09:50:28;;;;;;;0.52;0.30;;;11.90;56.40;;;;;;4977828;28;20492;-44
2023/04/02 09:52:57;;;;;;;0.35;0.20;;;11.90;56.50;;;;;;4975967;28;20057;-45
2023/04/02 09:55:27;;;;;;;0.55;0.30;;;11.90;56.40;;;;;;4978203;28;20061;-44
2023/04/02 09:58:12;;;;;;;0.30;0.30;;;11.90;56.40;;;;;;4980298;28;20065;-43
2023/04/02 10:00:40;;;;;;;0.85;0.40;;;11.90;56.20;;;;;;4973754;28;20581;-45
2023/04/02 10:03:22;;;;;;;1.05;0.40;;;12.00;56.30;;;;;;4979890;28;20050;-49
2023/04/02 10:06:05;;;;;;;0.82;0.40;;;12.00;55.80;;;;;;4978308;28;20050;-45
2023/04/02 10:08:35;;;;;;;0.68;0.30;;;12.00;55.80;;;;;;4979734;28;20061;-46
2023/04/02 10:11:05;;;;;;;1.88;0.50;;;12.00;55.80;;;;;;4981001;28;20054;-41
2023/04/02 10:13:38;;;;;;;0.70;0.40;;;12.00;55.70;;;;;;4978505;28;20440;-45
2023/04/02 10:16:08;;;;;;;0.93;0.40;;;12.00;55.60;;;;;;4977662;28;20050;-46
2023/04/02 10:18:49;;;;;;;0.50;0.50;;;12.00;55.60;;;;;;4975105;28;20050;-46
2023/04/02 10:21:20;;;;;;;1.42;1.23;;;12.00;55.50;;;;;;4977600;28;20425;-42
2023/04/02 10:23:48;;;;;;;6.03;1.90;;;12.00;56.10;;;;;;4978234;28;20069;-41
2023/04/02 10:26:36;;;;;;;3.25;2.10;;;12.00;55.30;;;;;;4979017;28;20512;-43
2023/04/02 10:29:32;;;;;;;2.13;1.80;;;11.90;54.90;;;;;;4980981;28;20062;-43
2023/04/02 10:32:04;;;;;;;3.58;2.35;;;11.90;54.90;;;;;;4978281;28;20050;-43
2023/04/02 10:34:39;;;;;;;2.72;2.10;;;11.80;54.80;;;;;;4978509;28;20058;-46
2023/04/02 10:37:32;;;;;;;2.67;1.98;;;11.70;54.90;;;;;;4977936;28;20062;-44
2023/04/02 10:40:09;;;;;;;2.63;1.95;;;11.60;55.30;;;;;;4981636;28;20138;-44
2023/04/02 10:42:39;;;;;;;2.30;2.03;;;11.50;55.30;;;;;;4981746;28;20063;-44
2023/04/02 10:45:20;;;;;;;2.90;2.13;;;11.40;55.40;;;;;;4983261;28;20058;-42
2023/04/02 10:47:54;;;;;;;2.80;2.05;;;11.40;55.70;;;;;;4982737;28;20490;-43
2023/04/02 10:50:31;;;;;;;3.25;2.42;;;11.40;55.90;;;;;;4978892;28;20497;-41
2023/04/02 10:53:10;;;;;;;3.45;2.13;;;11.40;56.10;;;;;;4981336;28;20080;-42
2023/04/02 10:55:43;;;;;;;2.75;2.13;;;11.40;56.10;;;;;;4978141;28;20426;-46
2023/04/02 10:58:22;;;;;;;2.33;1.80;;;11.40;56.10;;;;;;4982412;28;20054;-46
2023/04/02 11:00:51;;;;;;;2.67;1.73;;;11.40;56.10;;;;;;4981467;28;20062;-43
2023/04/02 11:03:28;;;;;;;3.38;1.67;;;11.40;56.10;;;;;;4983163;28;20521;-45
2023/04/02 11:05:58;;;;;;;3.15;1.38;;;11.40;56.30;;;;;;4981292;28;20073;-44
2023/04/02 11:08:29;;;;;;;1.35;1.17;;;11.40;56.50;;;;;;4982537;28;20517;-42
2023/04/02 11:11:01;;;;;;;1.42;1.00;;;11.50;56.50;;;;;;4980440;28;20055;-43
2023/04/02 11:13:35;;;;;;;0.70;0.63;;;11.50;56.30;;;;;;4982049;28;20054;-49
2023/04/02 11:16:03;;;;;;;2.03;0.80;;;11.60;56.10;;;;;;4979125;28;20522;-46
2023/04/02 11:18:34;;;;;;;1.00;0.90;;;11.60;55.90;;;;;;4981887;28;20070;-44
2023/04/02 11:21:06;;;;;;;3.00;0.90;;;11.70;55.70;;;;;;4979044;28;20058;-49
2023/04/02 11:23:36;;;;;;;1.42;1.00;;;11.70;55.30;;;;;;4978919;28;20050;-49
2023/04/02 11:26:34;;;;;;;1.30;0.70;;;11.80;55.10;;;;;;4979143;28;20054;-49
2023/04/02 11:29:21;;;;;;;0.95;0.80;;;11.80;54.70;;;;;;4976273;28;20077;-46
2023/04/02 11:31:50;;;;;;;1.10;1.00;;;11.80;54.60;;;;;;4982416;28;20054;-47
2023/04/02 11:34:50;;;;;;;1.00;0.90;;;11.80;54.70;;;;;;4980761;28;20487;-47
2023/04/02 11:37:36;;;;;;;1.00;0.80;;;11.80;54.40;;;;;;4983771;28;20062;-48
2023/04/02 11:40:22;;;;;;;0.80;0.75;;;11.90;54.20;;;;;;4983692;28;20080;-51
2023/04/02 11:42:51;;;;;;;0.90;0.80;;;11.90;54.30;;;;;;4982532;28;20089;-47
2023/04/02 11:45:53;;;;;;;1.17;0.98;;;11.90;54.30;;;;;;4986424;28;20424;-49
2023/04/02 11:48:28;;;;;;;0.80;0.77;;;11.90;54.20;;;;;;4984746;28;20069;-52
2023/04/02 11:50:56;;;;;;;1.27;1.08;;;11.90;54.20;;;;;;4985066;28;20058;-45
2023/04/02 11:53:30;;;;;;;1.40;1.05;;;11.90;54.30;;;;;;4985653;28;20054;-47
2023/04/02 11:56:09;;;;;;;1.33;1.00;;;11.90;54.20;;;;;;4986419;28;20422;-50
2023/04/02 11:59:02;;;;;;;1.33;0.95;;;11.90;54.30;;;;;;4986385;28;20486;-48
2023/04/02 12:01:56;;;;;;;2.47;1.33;;;11.90;54.50;;;;;;4982443;28;20046;-47
2023/04/02 12:04:47;;;;;;;3.25;1.85;;;11.90;54.50;;;;;;4984425;28;20073;-48
2023/04/02 12:07:35;;;;;;;2.60;1.77;;;11.90;54.10;;;;;;4979699;28;20474;-45
2023/04/02 12:10:05;;;;;;;1.90;1.60;;;11.90;53.80;;;;;;4986484;28;20499;-45
2023/04/02 12:12:36;;;;;;;2.05;1.77;;;11.90;54.10;;;;;;4983781;28;20065;-48
2023/04/02 12:15:31;;;;;;;2.60;1.90;;;11.80;53.80;;;;;;4983390;28;20505;-44
2023/04/02 12:18:06;;;;;;;2.08;1.67;;;11.70;53.80;;;;;;4985852;28;20061;-48
2023/04/02 12:20:34;;;;;;;3.92;2.10;;;11.70;54.10;;;;;;4978827;28;20129;-44
2023/04/02 12:23:02;;;;;;;2.80;1.90;;;11.70;54.20;;;;;;4975877;28;20062;-46
2023/04/02 12:25:32;;;;;;;3.00;1.70;;;11.60;54.10;;;;;;4982984;28;20414;-50
2023/04/02 12:28:16;;;;;;;1.80;1.50;;;11.60;53.80;;;;;;4983402;28;20061;-47
2023/04/02 12:30:44;;;;;;;;;;;11.50;54.10;;;;;;4981714;28;20061;-48
2023/04/02 12:33:29;;;;;;;2.67;2.00;;;11.50;54.10;;;;;;4982131;28;20440;-46
2023/04/02 12:35:59;;;;;;;5.65;1.85;;;11.50;54.30;;;;;;4982341;28;20050;-46
2023/04/02 12:38:28;;;;;;;2.85;1.75;;;11.50;54.60;;;;;;4980742;28;20057;-43
2023/04/02 12:40:57;;;;;;;1.52;1.38;;;11.50;54.70;;;;;;4982842;28;20050;-45
2023/04/02 12:43:26;;;;;;;2.55;1.85;;;11.50;54.90;;;;;;4983822;28;20054;-44
2023/04/02 12:45:54;;;;;;;3.67;1.90;;;11.50;54.60;;;;;;4983397;28;20046;-45
2023/04/02 12:48:24;;;;;;;3.33;2.17;;;11.50;54.00;;;;;;4978825;28;20502;-45
2023/04/02 12:50:51;;;;;;;1.80;1.58;;;11.40;54.50;;;;;;4978300;28;20100;-45
2023/04/02 12:53:22;;;;;;;2.20;1.77;;;11.40;54.30;;;;;;4980184;28;20050;-49
2023/04/02 12:55:50;;;;;;;1.80;1.50;;;11.40;54.70;;;;;;4982184;28;20047;-44
2023/04/02 12:58:34;;;;;;;2.42;1.75;;;11.40;54.90;;;;;;4984848;28;20069;-47
2023/04/02 13:01:13;;;;;;;1.83;1.52;;;11.40;55.50;;;;;;4975404;28;20054;-48
2023/04/02 13:03:42;;;;;;;1.95;1.60;;;11.50;55.10;;;;;;4972326;28;20062;-46
2023/04/02 13:06:22;;;;;;;2.92;1.83;;;11.50;55.00;;;;;;4981386;28;20047;-45
2023/04/02 13:08:50;;;;;;;2.72;1.60;;;11.60;54.90;;;;;;4977980;28;20058;-46
2023/04/02 13:11:18;;;;;;;2.85;1.90;;;11.60;55.00;;;;;;4971878;28;20058;-47
2023/04/02 13:13:47;;;;;;;2.83;1.70;;;11.70;55.00;;;;;;4975083;28;20058;-49
2023/04/02 13:16:36;;;;;;;2.47;1.42;;;11.80;54.90;;;;;;4978715;28;20050;-50
2023/04/02 13:19:23;;;;;;;19.55;8.07;;;11.80;54.80;;;;;;4970119;28;20945;-47
2023/04/02 13:21:52;;;;;;;3.22;2.13;;;11.80;54.80;;;;;;4979152;28;20057;-44